Atlantic - Newfoundland: Past 24 Hour Conditions

 

St. Anthony Airport

12:30 PM NST 26 November 2014
This table is a summary of hourly weather conditions for the past 24 hours.
Date / Time
(NST)
Wind(knots) Conditions Visibility(km) Pressure(kPa) Air tempC) Relative humidity(%) Dew pointC)
26 November 2014
12:30 W 26 gust 35 Sunny 16 100.7 1 65 -5
11:30 W 26 gust 32 Mainly Sunny 16 100.6 1 68 -5
10:30 W 19 gust 27 Sunny 16 100.6 1 67 -5
9:30 W 26 gust 34 Sunny 16 100.4 1 65 -5
8:30 WSW 23 gust 32 Sunny 16 100.3 1 66 -5
7:30 W 27 gust 36 Mainly Clear 16 100.1 2 70 -3
6:30 W 23 gust 34 Mostly Cloudy 16 99.9 2 78 -1
5:30 WSW 24 gust 35 Cloudy 16 99.7 3 82 0
4:30 WSW 29 gust 37 Cloudy 16 99.7 4 81 1
3:30 SW 29 gust 39 Cloudy 16 99.6 4 80 1
2:30 SW 33 gust 41 Mostly Cloudy 16 99.5 4 79 1
1:30 SW 28 gust 42 Clear 16 99.4 4 79 1
0:30 SW 28 gust 42 Clear 16 99.3 4 78 1
25 November 2014
23:30 SW 32 gust 47 Clear 16 99.3 5 76 1
22:30 SW 32 gust 41 Clear 16 99.2 5 75 1
21:30 SW 32 gust 47 Clear 16 99.2 5 75 1
20:30 SW 34 gust 47 Clear 16 99.2 6 75 1
19:30 SW 35 gust 47 Clear 16 99.2 6 74 2
18:30 SW 33 gust 41 Clear 16 99.1 6 77 2
17:30 SW 32 gust 43 Clear 16 99.0 6 79 3
16:30 SW 32 gust 40 Clear 16 99.1 7 78 3
15:30 SW 29 gust 40 Sunny 16 99.0 7 78 4
14:30 SW 28 gust 39 Mostly Cloudy 16 99.1 7 83 5
13:30 SW 24 gust 35 Cloudy 16 99.1 8 86 5
12:30 SSW 28 gust 40 Cloudy 16 99.0 9 89 7
 
Map of Atlantic - Newfoundland marine weather areas Southwestern Grand Banks - 44138 Banquereau - 44139 Tail of the Bank - 44140 Nickerson Bank - 44251 Northeast Burgeo Bank - 44255 Blanc-Sablon Airport Cap Whittle Chevery Natashquan Airport Heath Point Miscou Island Grand Étang Ingonish Beach North Mountain St.Paul Island J.A. Douglas McCurdy Sydney Airport Charlottetown Airport East Point North Cape Argentia Bonavista Burgeo Cape Race Corner Brook Daniel's Harbour Englee Ferolle Point La Scie Port aux Basques Rocky Harbour Sagona Island St. Anthony Airport St. John's Int'l Airport St. Lawrence Stephenville Airport Twillingate Winterland Wreckhouse Cartwright Airport Mary's Harbour Grates Cove Pool's Island Marticot Island Long Pond Îles de la Madeleine Airport
Legend: buoyBuoy land stationLand Station